Bookmark and Share
Track history (hours):
 

Flinterbothnia

Last reported at 2014-Apr-20 02:33 UTC. Time now 2014-Apr-20 03:24 UTC.
Position N 54°55' E 013°48'.

Length 82 m; draft 3.6 m.

Type: Ship. MMSI: 244741000.

NotesDate/timePositionNaut miles runAvg speedWind from/ knotsBaromVisibWave heightAir tempDewpointWater temp
2014-Apr-20 02:33N 54°55' E 013°48'1211.7
2014-Apr-20 01:33N 54°51' E 013°29'1111.0
2014-Apr-20 00:33N 54°46' E 013°12'1111.1
2014-Apr-19 23:33N 54°42' E 012°54'1111.3
2014-Apr-19 22:33N 54°38' E 012°36'1111.1
2014-Apr-19 21:33N 54°32' E 012°20'1110.6
2014-Apr-19 20:33N 54°25' E 012°06'1110.6
2014-Apr-19 19:33N 54°25' E 011°48'1110.7
2014-Apr-19 18:33N 54°28' E 011°31'1111.2
2014-Apr-19 17:33N 54°34' E 011°14'59 8.3
2014-Apr-19 10:33N 54°16' E 009°38'7 6.7
2014-Apr-19 09:30N 54°11' E 009°30'7 7.7
2014-Apr-19 08:33N 54°07' E 009°20'5 5.2
2014-Apr-19 07:33N 54°02' E 009°18'9 8.8
2014-Apr-19 06:33N 53°54' E 009°10'4 4.4
2014-Apr-19 05:33N 53°52' E 009°03'9 9.5
2014-Apr-19 04:33N 53°50' E 008°47'10 9.9
2014-Apr-19 03:33N 53°58' E 008°36'10 9.9
2014-Apr-19 02:33N 53°59' E 008°19'1110.4
2014-Apr-19 01:32N 53°58' E 008°01'1110.9
2014-Apr-19 00:33N 53°56' E 007°43'1111.4
2014-Apr-18 23:33N 53°53' E 007°25'1211.6
2014-Apr-18 22:33N 53°50' E 007°06'3611.4
2014-Apr-18 19:25N 53°41' E 006°07'910.6
2014-Apr-18 18:33N 53°38' E 005°52'1010.0
2014-Apr-18 17:33N 53°35' E 005°36'9 9.4
2014-Apr-18 16:33N 53°32' E 005°21'9 9.0
2014-Apr-18 15:33N 53°29' E 005°07'9 8.8
2014-Apr-18 14:33N 53°26' E 004°53'15110.6
2014-Apr-18 00:14N 53°32' E 000°39'811.1
2014-Apr-17 23:33N 53°32' E 000°27'1212.0
2014-Apr-17 22:34N 53°33' E 000°07'1413.8
2014-Apr-17 21:33N 53°41' W 000°13'1111.5
2014-Apr-17 20:33N 53°41' W 000°32'12 0.3
2014-Apr-16 08:05N 53°42' W 000°52'3 2.2
2014-Apr-16 06:30N 53°42' W 000°46'2 0.3
2014-Apr-16 00:31N 53°42' W 000°44'0 0.0
2014-Apr-15 23:33N 53°42' W 000°44'0 0.0
2014-Apr-15 22:33N 53°42' W 000°44'0 0.0
2014-Apr-15 21:33N 53°42' W 000°44'0 0.0
2014-Apr-15 20:33N 53°42' W 000°44'2 0.9
2014-Apr-15 18:26N 53°42' W 000°41'7 7.9
2014-Apr-15 17:32N 53°42' W 000°29'8 8.6
2014-Apr-15 16:33N 53°43' W 000°14'7 7.4
2014-Apr-15 15:33N 53°37' W 000°06'7 7.3
2014-Apr-15 14:33N 53°34' E 000°05'9 4.7
2014-Apr-15 12:34N 53°33' E 000°21'283 7.4
2014-Apr-13 22:34N 54°01' E 008°18'9 9.3
2014-Apr-13 21:33N 53°58' E 008°33'8 7.8
2014-Apr-13 20:33N 53°53' E 008°43'9 9.1
2014-Apr-13 19:33N 53°51' E 008°58'7 7.0
2014-Apr-13 18:33N 53°54' E 009°09'8 8.1
2014-Apr-13 17:33N 53°60' E 009°18'9 8.7
2014-Apr-13 16:33N 54°09' E 009°21'71 7.8
2014-Apr-13 07:21N 54°35' E 011°14'8 9.5
2014-Apr-13 06:33N 54°33' E 011°26'1010.0
2014-Apr-13 05:33N 54°30' E 011°43'10 9.8
2014-Apr-13 04:33N 54°27' E 011°59'8 8.3
2014-Apr-13 03:33N 54°31' E 012°12'10 9.8
2014-Apr-13 02:32N 54°39' E 012°22'1010.5
2014-Apr-13 01:33N 54°45' E 012°37'1010.4
2014-Apr-13 00:33N 54°47' E 012°54'1110.6
2014-Apr-12 23:33N 54°48' E 013°12'1010.5
2014-Apr-12 22:33N 54°49' E 013°31'1010.4
2014-Apr-12 21:33N 54°50' E 013°48'1210.4
2014-Apr-12 20:27N 54°51' E 014°08'1010.7
2014-Apr-12 19:33N 54°53' E 014°25'14310.9
2014-Apr-12 06:21N 55°24' E 018°30'  

Dump ship's entire track history

sailing weather and tide predictions

Flinterbothnia — PBLG — position and weather